sensor_id;sensor_type;location;lat;lon;timestamp;temperature;humidity
76168;DHT22;64927;48.214;16.378;2022-11-06T00:01:34;10.90;65.20
76168;DHT22;64927;48.214;16.378;2022-11-06T00:04:00;10.90;65.10
76168;DHT22;64927;48.214;16.378;2022-11-06T00:06:26;11.00;65.10
76168;DHT22;64927;48.214;16.378;2022-11-06T00:09:12;10.90;65.00
76168;DHT22;64927;48.214;16.378;2022-11-06T00:11:38;10.90;65.20
76168;DHT22;64927;48.214;16.378;2022-11-06T00:14:07;10.80;65.20
76168;DHT22;64927;48.214;16.378;2022-11-06T00:16:33;10.80;65.30
76168;DHT22;64927;48.214;16.378;2022-11-06T00:18:59;10.80;65.30
76168;DHT22;64927;48.214;16.378;2022-11-06T00:21:27;10.80;65.20
76168;DHT22;64927;48.214;16.378;2022-11-06T00:23:56;10.70;65.20
76168;DHT22;64927;48.214;16.378;2022-11-06T00:26:23;10.80;66.00
76168;DHT22;64927;48.214;16.378;2022-11-06T00:28:50;10.70;65.20
76168;DHT22;64927;48.214;16.378;2022-11-06T00:31:21;10.60;65.40
76168;DHT22;64927;48.214;16.378;2022-11-06T00:33:47;10.70;65.50
76168;DHT22;64927;48.214;16.378;2022-11-06T00:36:18;10.60;65.70
76168;DHT22;64927;48.214;16.378;2022-11-06T00:38:44;10.60;65.70
76168;DHT22;64927;48.214;16.378;2022-11-06T00:41:12;10.50;65.70
76168;DHT22;64927;48.214;16.378;2022-11-06T00:43:38;10.60;65.70
76168;DHT22;64927;48.214;16.378;2022-11-06T00:46:06;10.60;65.70
76168;DHT22;64927;48.214;16.378;2022-11-06T00:48:33;10.50;65.80
76168;DHT22;64927;48.214;16.378;2022-11-06T00:51:17;10.50;65.80
76168;DHT22;64927;48.214;16.378;2022-11-06T00:53:46;10.50;66.00
76168;DHT22;64927;48.214;16.378;2022-11-06T00:56:17;10.40;65.90
76168;DHT22;64927;48.214;16.378;2022-11-06T00:58:43;10.50;65.80
76168;DHT22;64927;48.214;16.378;2022-11-06T01:01:29;10.40;66.00
76168;DHT22;64927;48.214;16.378;2022-11-06T01:03:57;10.50;65.80
76168;DHT22;64927;48.214;16.378;2022-11-06T01:06:25;10.40;66.10
76168;DHT22;64927;48.214;16.378;2022-11-06T01:08:51;10.40;66.00
76168;DHT22;64927;48.214;16.378;2022-11-06T01:13:45;10.30;66.10
76168;DHT22;64927;48.214;16.378;2022-11-06T01:16:14;10.30;66.00
76168;DHT22;64927;48.214;16.378;2022-11-06T01:18:42;10.30;66.20
76168;DHT22;64927;48.214;16.378;2022-11-06T01:21:11;10.40;66.10
76168;DHT22;64927;48.214;16.378;2022-11-06T01:23:40;10.40;66.00
76168;DHT22;64927;48.214;16.378;2022-11-06T01:26:10;10.40;66.00
76168;DHT22;64927;48.214;16.378;2022-11-06T01:28:37;10.40;66.10
76168;DHT22;64927;48.214;16.378;2022-11-06T01:31:09;10.20;66.30
76168;DHT22;64927;48.214;16.378;2022-11-06T01:33:38;10.20;66.50
76168;DHT22;64927;48.214;16.378;2022-11-06T01:36:04;10.20;66.50
76168;DHT22;64927;48.214;16.378;2022-11-06T01:38:32;10.20;66.60
76168;DHT22;64927;48.214;16.378;2022-11-06T01:40:57;10.20;67.40
76168;DHT22;64927;48.214;16.378;2022-11-06T01:46:07;10.30;66.40
76168;DHT22;64927;48.214;16.378;2022-11-06T01:48:33;10.30;66.40
76168;DHT22;64927;48.214;16.378;2022-11-06T01:50:59;10.30;66.40
76168;DHT22;64927;48.214;16.378;2022-11-06T01:53:25;10.20;66.60
76168;DHT22;64927;48.214;16.378;2022-11-06T01:55:54;10.20;66.60
76168;DHT22;64927;48.214;16.378;2022-11-06T01:58:22;10.20;66.70
76168;DHT22;64927;48.214;16.378;2022-11-06T02:00:49;10.30;66.60
76168;DHT22;64927;48.214;16.378;2022-11-06T02:03:15;10.20;66.90
76168;DHT22;64927;48.214;16.378;2022-11-06T02:05:41;10.20;66.80
76168;DHT22;64927;48.214;16.378;2022-11-06T02:08:12;10.10;67.00
76168;DHT22;64927;48.214;16.378;2022-11-06T02:10:38;10.10;67.00
76168;DHT22;64927;48.214;16.378;2022-11-06T02:16:03;10.10;67.00
76168;DHT22;64927;48.214;16.378;2022-11-06T02:29:19;10.10;66.70
76168;DHT22;64927;48.214;16.378;2022-11-06T02:31:47;10.20;66.60
76168;DHT22;64927;48.214;16.378;2022-11-06T02:34:15;10.20;66.50
76168;DHT22;64927;48.214;16.378;2022-11-06T02:36:50;10.20;66.60
76168;DHT22;64927;48.214;16.378;2022-11-06T02:39:23;10.20;66.60
76168;DHT22;64927;48.214;16.378;2022-11-06T02:41:52;10.10;66.70
76168;DHT22;64927;48.214;16.378;2022-11-06T02:44:21;10.20;66.80
76168;DHT22;64927;48.214;16.378;2022-11-06T02:46:50;10.30;66.60
76168;DHT22;64927;48.214;16.378;2022-11-06T02:49:24;10.20;66.50
76168;DHT22;64927;48.214;16.378;2022-11-06T02:51:54;10.30;66.60
76168;DHT22;64927;48.214;16.378;2022-11-06T02:54:23;10.30;66.70
76168;DHT22;64927;48.214;16.378;2022-11-06T02:56:51;10.30;66.60
76168;DHT22;64927;48.214;16.378;2022-11-06T02:59:47;10.30;66.70
76168;DHT22;64927;48.214;16.378;2022-11-06T03:02:22;10.30;66.70
76168;DHT22;64927;48.214;16.378;2022-11-06T03:07:33;10.10;67.20
76168;DHT22;64927;48.214;16.378;2022-11-06T03:10:04;10.20;67.20
76168;DHT22;64927;48.214;16.378;2022-11-06T03:12:31;10.20;67.10
76168;DHT22;64927;48.214;16.378;2022-11-06T03:18:18;10.10;67.50
76168;DHT22;64927;48.214;16.378;2022-11-06T03:23:31;10.10;67.70
76168;DHT22;64927;48.214;16.378;2022-11-06T03:26:06;10.10;67.60
76168;DHT22;64927;48.214;16.378;2022-11-06T03:28:37;10.10;67.60
76168;DHT22;64927;48.214;16.378;2022-11-06T03:31:08;10.00;67.80
76168;DHT22;64927;48.214;16.378;2022-11-06T03:36:18;10.10;67.80
76168;DHT22;64927;48.214;16.378;2022-11-06T03:38:55;10.10;67.70
76168;DHT22;64927;48.214;16.378;2022-11-06T03:41:27;9.90;68.10
76168;DHT22;64927;48.214;16.378;2022-11-06T03:43:59;10.00;68.20
76168;DHT22;64927;48.214;16.378;2022-11-06T03:46:27;9.90;68.70
76168;DHT22;64927;48.214;16.378;2022-11-06T03:49:04;9.90;68.60
76168;DHT22;64927;48.214;16.378;2022-11-06T03:54:09;9.80;68.60
76168;DHT22;64927;48.214;16.378;2022-11-06T03:56:41;9.80;68.90
76168;DHT22;64927;48.214;16.378;2022-11-06T03:59:09;9.80;68.80
76168;DHT22;64927;48.214;16.378;2022-11-06T04:01:39;9.80;69.00
76168;DHT22;64927;48.214;16.378;2022-11-06T04:09:19;9.90;68.90
76168;DHT22;64927;48.214;16.378;2022-11-06T04:12:05;9.90;68.70
76168;DHT22;64927;48.214;16.378;2022-11-06T04:14:53;9.90;68.70
76168;DHT22;64927;48.214;16.378;2022-11-06T04:17:23;10.00;68.50
76168;DHT22;64927;48.214;16.378;2022-11-06T04:19:56;10.00;68.50
76168;DHT22;64927;48.214;16.378;2022-11-06T04:33:59;9.80;68.80
76168;DHT22;64927;48.214;16.378;2022-11-06T04:36:42;9.80;68.80
76168;DHT22;64927;48.214;16.378;2022-11-06T04:39:21;9.80;68.80
76168;DHT22;64927;48.214;16.378;2022-11-06T04:42:08;9.80;68.80
76168;DHT22;64927;48.214;16.378;2022-11-06T04:44:57;9.90;68.70
76168;DHT22;64927;48.214;16.378;2022-11-06T04:47:25;9.80;68.80
76168;DHT22;64927;48.214;16.378;2022-11-06T04:49:52;9.80;68.70
76168;DHT22;64927;48.214;16.378;2022-11-06T04:52:24;9.80;68.70
76168;DHT22;64927;48.214;16.378;2022-11-06T04:54:55;9.80;68.80
76168;DHT22;64927;48.214;16.378;2022-11-06T04:57:22;9.80;68.80
76168;DHT22;64927;48.214;16.378;2022-11-06T04:59:51;9.80;68.90
76168;DHT22;64927;48.214;16.378;2022-11-06T05:02:17;9.70;69.10
76168;DHT22;64927;48.214;16.378;2022-11-06T05:04:43;9.80;69.00
76168;DHT22;64927;48.214;16.378;2022-11-06T05:07:12;9.70;69.10
76168;DHT22;64927;48.214;16.378;2022-11-06T05:09:41;9.70;69.10
76168;DHT22;64927;48.214;16.378;2022-11-06T05:12:09;9.70;69.20
76168;DHT22;64927;48.214;16.378;2022-11-06T05:14:37;9.60;69.50
76168;DHT22;64927;48.214;16.378;2022-11-06T05:17:02;9.60;69.50
76168;DHT22;64927;48.214;16.378;2022-11-06T05:19:28;9.60;69.80
76168;DHT22;64927;48.214;16.378;2022-11-06T05:21:58;9.60;69.60
76168;DHT22;64927;48.214;16.378;2022-11-06T05:24:42;9.60;69.60
76168;DHT22;64927;48.214;16.378;2022-11-06T05:27:08;9.70;69.40
76168;DHT22;64927;48.214;16.378;2022-11-06T05:29:33;9.70;69.40
76168;DHT22;64927;48.214;16.378;2022-11-06T05:31:59;9.70;69.40
76168;DHT22;64927;48.214;16.378;2022-11-06T05:34:27;9.70;69.40
76168;DHT22;64927;48.214;16.378;2022-11-06T05:36:53;9.60;69.50
76168;DHT22;64927;48.214;16.378;2022-11-06T05:39:18;9.60;69.50
76168;DHT22;64927;48.214;16.378;2022-11-06T05:41:44;9.70;69.40
76168;DHT22;64927;48.214;16.378;2022-11-06T05:44:09;9.70;69.30
76168;DHT22;64927;48.214;16.378;2022-11-06T05:46:35;9.70;69.40
76168;DHT22;64927;48.214;16.378;2022-11-06T05:49:01;9.70;69.30
76168;DHT22;64927;48.214;16.378;2022-11-06T05:51:26;9.70;69.30
76168;DHT22;64927;48.214;16.378;2022-11-06T05:53:52;9.70;69.30
76168;DHT22;64927;48.214;16.378;2022-11-06T05:56:26;9.70;69.30
76168;DHT22;64927;48.214;16.378;2022-11-06T05:58:54;9.70;69.30
76168;DHT22;64927;48.214;16.378;2022-11-06T06:01:19;9.70;69.30
76168;DHT22;64927;48.214;16.378;2022-11-06T06:03:47;9.70;69.30
76168;DHT22;64927;48.214;16.378;2022-11-06T06:06:15;9.60;70.30
76168;DHT22;64927;48.214;16.378;2022-11-06T06:08:43;9.60;69.70
76168;DHT22;64927;48.214;16.378;2022-11-06T06:11:09;9.60;69.70
76168;DHT22;64927;48.214;16.378;2022-11-06T06:13:35;9.50;70.00
76168;DHT22;64927;48.214;16.378;2022-11-06T06:16:05;9.60;69.90
76168;DHT22;64927;48.214;16.378;2022-11-06T06:18:31;9.60;69.70
76168;DHT22;64927;48.214;16.378;2022-11-06T06:20:57;9.60;69.60
76168;DHT22;64927;48.214;16.378;2022-11-06T06:23:28;9.70;69.60
76168;DHT22;64927;48.214;16.378;2022-11-06T06:25:55;9.70;69.60
76168;DHT22;64927;48.214;16.378;2022-11-06T06:28:21;9.70;69.70
76168;DHT22;64927;48.214;16.378;2022-11-06T06:30:46;9.70;69.50
76168;DHT22;64927;48.214;16.378;2022-11-06T06:33:12;9.70;69.30
76168;DHT22;64927;48.214;16.378;2022-11-06T06:35:38;9.80;69.30
76168;DHT22;64927;48.214;16.378;2022-11-06T06:38:03;9.90;69.20
76168;DHT22;64927;48.214;16.378;2022-11-06T06:40:29;9.80;69.10
76168;DHT22;64927;48.214;16.378;2022-11-06T06:42:56;9.90;69.10
76168;DHT22;64927;48.214;16.378;2022-11-06T06:45:22;9.90;68.90
76168;DHT22;64927;48.214;16.378;2022-11-06T06:47:48;9.90;69.00
76168;DHT22;64927;48.214;16.378;2022-11-06T06:50:18;9.90;68.90
76168;DHT22;64927;48.214;16.378;2022-11-06T06:52:44;9.80;68.80
76168;DHT22;64927;48.214;16.378;2022-11-06T06:55:09;9.90;68.90
76168;DHT22;64927;48.214;16.378;2022-11-06T06:57:37;10.00;68.80
76168;DHT22;64927;48.214;16.378;2022-11-06T07:00:03;10.10;69.00
76168;DHT22;64927;48.214;16.378;2022-11-06T07:02:29;10.20;67.90
76168;DHT22;64927;48.214;16.378;2022-11-06T07:04:54;10.30;68.10
76168;DHT22;64927;48.214;16.378;2022-11-06T07:07:20;10.40;67.50
76168;DHT22;64927;48.214;16.378;2022-11-06T07:09:46;10.50;67.10
76168;DHT22;64927;48.214;16.378;2022-11-06T07:12:11;10.60;66.90
76168;DHT22;64927;48.214;16.378;2022-11-06T07:14:37;10.80;66.20
76168;DHT22;64927;48.214;16.378;2022-11-06T07:17:03;10.80;66.10
76168;DHT22;64927;48.214;16.378;2022-11-06T07:19:28;10.90;65.90
76168;DHT22;64927;48.214;16.378;2022-11-06T07:21:54;11.00;65.40
76168;DHT22;64927;48.214;16.378;2022-11-06T07:24:19;11.00;65.10
76168;DHT22;64927;48.214;16.378;2022-11-06T07:26:48;11.10;64.80
76168;DHT22;64927;48.214;16.378;2022-11-06T07:29:16;11.10;64.50
76168;DHT22;64927;48.214;16.378;2022-11-06T07:31:44;11.20;64.40
76168;DHT22;64927;48.214;16.378;2022-11-06T07:34:10;11.30;64.40
76168;DHT22;64927;48.214;16.378;2022-11-06T07:36:36;11.40;63.70
76168;DHT22;64927;48.214;16.378;2022-11-06T07:39:01;11.40;63.20
76168;DHT22;64927;48.214;16.378;2022-11-06T07:41:27;11.30;63.50
76168;DHT22;64927;48.214;16.378;2022-11-06T07:43:53;11.40;63.60
76168;DHT22;64927;48.214;16.378;2022-11-06T07:46:18;11.60;62.80
76168;DHT22;64927;48.214;16.378;2022-11-06T07:48:44;11.60;62.50
76168;DHT22;64927;48.214;16.378;2022-11-06T07:51:10;11.60;62.60
76168;DHT22;64927;48.214;16.378;2022-11-06T07:53:39;11.80;62.40
76168;DHT22;64927;48.214;16.378;2022-11-06T07:56:06;11.80;61.80
76168;DHT22;64927;48.214;16.378;2022-11-06T07:58:34;11.80;62.10
76168;DHT22;64927;48.214;16.378;2022-11-06T08:01:02;11.90;61.50
76168;DHT22;64927;48.214;16.378;2022-11-06T08:03:30;11.90;61.50
76168;DHT22;64927;48.214;16.378;2022-11-06T08:06:02;12.10;61.00
76168;DHT22;64927;48.214;16.378;2022-11-06T08:08:31;12.10;60.20
76168;DHT22;64927;48.214;16.378;2022-11-06T08:11:05;12.20;60.30
76168;DHT22;64927;48.214;16.378;2022-11-06T08:13:34;12.30;59.20
76168;DHT22;64927;48.214;16.378;2022-11-06T08:16:05;12.30;59.80
76168;DHT22;64927;48.214;16.378;2022-11-06T08:18:31;12.50;59.90
76168;DHT22;64927;48.214;16.378;2022-11-06T08:20:57;12.50;59.60
76168;DHT22;64927;48.214;16.378;2022-11-06T08:23:22;12.70;59.10
76168;DHT22;64927;48.214;16.378;2022-11-06T08:25:48;12.80;58.40
76168;DHT22;64927;48.214;16.378;2022-11-06T08:28:17;12.50;60.30
76168;DHT22;64927;48.214;16.378;2022-11-06T08:30:43;12.50;60.50
76168;DHT22;64927;48.214;16.378;2022-11-06T08:33:10;12.30;60.80
76168;DHT22;64927;48.214;16.378;2022-11-06T08:35:36;12.40;61.30
76168;DHT22;64927;48.214;16.378;2022-11-06T08:38:02;12.20;61.40
76168;DHT22;64927;48.214;16.378;2022-11-06T08:40:31;12.10;61.60
76168;DHT22;64927;48.214;16.378;2022-11-06T08:43:04;12.20;61.80
76168;DHT22;64927;48.214;16.378;2022-11-06T08:45:39;12.20;61.90
76168;DHT22;64927;48.214;16.378;2022-11-06T08:48:08;12.10;62.20
76168;DHT22;64927;48.214;16.378;2022-11-06T08:50:38;12.10;62.40
76168;DHT22;64927;48.214;16.378;2022-11-06T08:53:05;12.10;62.40
76168;DHT22;64927;48.214;16.378;2022-11-06T08:55:32;12.10;62.10
76168;DHT22;64927;48.214;16.378;2022-11-06T08:57:59;12.30;62.10
76168;DHT22;64927;48.214;16.378;2022-11-06T09:00:28;12.20;62.00
76168;DHT22;64927;48.214;16.378;2022-11-06T09:03:02;12.30;61.80
76168;DHT22;64927;48.214;16.378;2022-11-06T09:05:28;12.20;61.70
76168;DHT22;64927;48.214;16.378;2022-11-06T09:07:56;12.20;62.00
76168;DHT22;64927;48.214;16.378;2022-11-06T09:10:22;12.10;62.00
76168;DHT22;64927;48.214;16.378;2022-11-06T09:12:47;12.20;62.10
76168;DHT22;64927;48.214;16.378;2022-11-06T09:15:13;12.30;61.40
76168;DHT22;64927;48.214;16.378;2022-11-06T09:17:47;12.40;61.30
76168;DHT22;64927;48.214;16.378;2022-11-06T09:20:14;12.40;60.50
76168;DHT22;64927;48.214;16.378;2022-11-06T09:22:43;12.40;60.20
76168;DHT22;64927;48.214;16.378;2022-11-06T09:25:09;12.40;60.00
76168;DHT22;64927;48.214;16.378;2022-11-06T09:27:45;12.50;59.40
76168;DHT22;64927;48.214;16.378;2022-11-06T09:30:13;12.50;60.00
76168;DHT22;64927;48.214;16.378;2022-11-06T09:32:47;12.40;60.00
76168;DHT22;64927;48.214;16.378;2022-11-06T09:35:13;12.60;59.00
76168;DHT22;64927;48.214;16.378;2022-11-06T09:37:39;12.60;58.70
76168;DHT22;64927;48.214;16.378;2022-11-06T09:40:05;12.60;58.30
76168;DHT22;64927;48.214;16.378;2022-11-06T09:42:49;12.70;58.30
76168;DHT22;64927;48.214;16.378;2022-11-06T09:45:19;12.70;57.70
76168;DHT22;64927;48.214;16.378;2022-11-06T09:48:16;12.60;58.00
76168;DHT22;64927;48.214;16.378;2022-11-06T09:55:50;12.50;56.20
76168;DHT22;64927;48.214;16.378;2022-11-06T09:58:27;12.50;56.50
76168;DHT22;64927;48.214;16.378;2022-11-06T10:00:59;12.30;57.10
76168;DHT22;64927;48.214;16.378;2022-11-06T10:03:53;12.40;57.70
76168;DHT22;64927;48.214;16.378;2022-11-06T10:06:23;12.40;56.80
76168;DHT22;64927;48.214;16.378;2022-11-06T10:08:50;12.30;57.70
76168;DHT22;64927;48.214;16.378;2022-11-06T10:19:49;12.60;57.50
76168;DHT22;64927;48.214;16.378;2022-11-06T10:22:30;12.70;57.50
76168;DHT22;64927;48.214;16.378;2022-11-06T10:25:18;12.50;57.70
76168;DHT22;64927;48.214;16.378;2022-11-06T10:34:23;12.70;58.10
76168;DHT22;64927;48.214;16.378;2022-11-06T10:37:35;12.90;57.80
76168;DHT22;64927;48.214;16.378;2022-11-06T10:39:44;12.90;57.60
76168;DHT22;64927;48.214;16.378;2022-11-06T10:42:43;13.00;57.20
76168;DHT22;64927;48.214;16.378;2022-11-06T10:45:16;12.90;57.10
76168;DHT22;64927;48.214;16.378;2022-11-06T10:48:00;12.90;56.40
76168;DHT22;64927;48.214;16.378;2022-11-06T10:50:40;13.10;55.90
76168;DHT22;64927;48.214;16.378;2022-11-06T10:55:50;13.20;53.40
76168;DHT22;64927;48.214;16.378;2022-11-06T10:58:26;13.20;53.20
76168;DHT22;64927;48.214;16.378;2022-11-06T11:01:02;13.20;52.90
76168;DHT22;64927;48.214;16.378;2022-11-06T11:03:38;13.00;53.50
76168;DHT22;64927;48.214;16.378;2022-11-06T11:06:04;13.20;53.80
76168;DHT22;64927;48.214;16.378;2022-11-06T11:08:36;13.30;52.90
76168;DHT22;64927;48.214;16.378;2022-11-06T11:11:03;13.30;52.90
76168;DHT22;64927;48.214;16.378;2022-11-06T11:13:30;13.30;52.80
76168;DHT22;64927;48.214;16.378;2022-11-06T11:15:55;13.40;53.00
76168;DHT22;64927;48.214;16.378;2022-11-06T11:18:26;13.50;52.70
76168;DHT22;64927;48.214;16.378;2022-11-06T11:23:30;13.40;52.20
76168;DHT22;64927;48.214;16.378;2022-11-06T11:26:13;13.10;52.50
76168;DHT22;64927;48.214;16.378;2022-11-06T11:28:41;13.20;53.00
76168;DHT22;64927;48.214;16.378;2022-11-06T11:31:13;13.30;53.00
76168;DHT22;64927;48.214;16.378;2022-11-06T11:33:47;13.30;52.80
76168;DHT22;64927;48.214;16.378;2022-11-06T11:36:14;13.30;52.30
76168;DHT22;64927;48.214;16.378;2022-11-06T11:38:41;13.30;52.30
76168;DHT22;64927;48.214;16.378;2022-11-06T11:41:11;13.20;52.60
76168;DHT22;64927;48.214;16.378;2022-11-06T11:43:38;13.30;52.20
76168;DHT22;64927;48.214;16.378;2022-11-06T11:48:51;13.40;51.20
76168;DHT22;64927;48.214;16.378;2022-11-06T11:56:49;13.50;50.80
76168;DHT22;64927;48.214;16.378;2022-11-06T11:59:42;13.50;50.80
76168;DHT22;64927;48.214;16.378;2022-11-06T12:02:33;13.50;50.80
76168;DHT22;64927;48.214;16.378;2022-11-06T12:05:10;13.60;49.40
76168;DHT22;64927;48.214;16.378;2022-11-06T12:07:40;13.60;48.90
76168;DHT22;64927;48.214;16.378;2022-11-06T12:10:26;13.50;49.20
76168;DHT22;64927;48.214;16.378;2022-11-06T12:12:53;13.50;50.50
76168;DHT22;64927;48.214;16.378;2022-11-06T12:18:17;13.50;49.70
76168;DHT22;64927;48.214;16.378;2022-11-06T12:21:02;13.50;49.20
76168;DHT22;64927;48.214;16.378;2022-11-06T12:23:42;13.40;49.00
76168;DHT22;64927;48.214;16.378;2022-11-06T12:26:28;13.40;49.30
76168;DHT22;64927;48.214;16.378;2022-11-06T12:29:03;13.50;49.20
76168;DHT22;64927;48.214;16.378;2022-11-06T12:31:52;13.50;48.90
76168;DHT22;64927;48.214;16.378;2022-11-06T12:37:54;13.50;47.40
76168;DHT22;64927;48.214;16.378;2022-11-06T12:40:31;13.50;47.80
76168;DHT22;64927;48.214;16.378;2022-11-06T12:51:36;13.50;47.80
76168;DHT22;64927;48.214;16.378;2022-11-06T12:57:25;13.50;47.60
76168;DHT22;64927;48.214;16.378;2022-11-06T13:00:20;13.60;48.00
76168;DHT22;64927;48.214;16.378;2022-11-06T13:29:39;13.40;50.60
76168;DHT22;64927;48.214;16.378;2022-11-06T13:32:12;13.40;50.30
76168;DHT22;64927;48.214;16.378;2022-11-06T13:34:40;13.30;51.10
76168;DHT22;64927;48.214;16.378;2022-11-06T13:37:19;13.30;51.30
76168;DHT22;64927;48.214;16.378;2022-11-06T13:39:54;13.30;51.20
76168;DHT22;64927;48.214;16.378;2022-11-06T13:42:31;13.30;51.60
76168;DHT22;64927;48.214;16.378;2022-11-06T13:44:59;13.20;51.10
76168;DHT22;64927;48.214;16.378;2022-11-06T13:47:34;13.20;51.20
76168;DHT22;64927;48.214;16.378;2022-11-06T13:50:10;13.30;51.50
76168;DHT22;64927;48.214;16.378;2022-11-06T13:52:45;13.40;51.50
76168;DHT22;64927;48.214;16.378;2022-11-06T14:01:54;13.20;51.80
76168;DHT22;64927;48.214;16.378;2022-11-06T14:04:29;13.30;52.00
76168;DHT22;64927;48.214;16.378;2022-11-06T14:07:00;13.40;51.50
76168;DHT22;64927;48.214;16.378;2022-11-06T14:09:30;13.40;51.60
76168;DHT22;64927;48.214;16.378;2022-11-06T14:12:00;13.40;51.40
76168;DHT22;64927;48.214;16.378;2022-11-06T14:14:29;13.40;51.50
76168;DHT22;64927;48.214;16.378;2022-11-06T14:24:37;13.20;52.40
76168;DHT22;64927;48.214;16.378;2022-11-06T14:27:11;13.20;52.50
76168;DHT22;64927;48.214;16.378;2022-11-06T14:34:43;13.10;52.50
76168;DHT22;64927;48.214;16.378;2022-11-06T14:42:28;13.20;52.60
76168;DHT22;64927;48.214;16.378;2022-11-06T14:45:10;13.30;52.60
76168;DHT22;64927;48.214;16.378;2022-11-06T14:50:23;13.30;52.40
76168;DHT22;64927;48.214;16.378;2022-11-06T14:53:20;13.30;52.00
76168;DHT22;64927;48.214;16.378;2022-11-06T14:55:59;13.30;52.10
76168;DHT22;64927;48.214;16.378;2022-11-06T14:58:35;13.40;52.20
76168;DHT22;64927;48.214;16.378;2022-11-06T15:01:11;13.30;51.90
76168;DHT22;64927;48.214;16.378;2022-11-06T15:03:48;13.30;52.00
76168;DHT22;64927;48.214;16.378;2022-11-06T15:16:37;13.00;52.70
76168;DHT22;64927;48.214;16.378;2022-11-06T15:19:40;13.10;52.70
76168;DHT22;64927;48.214;16.378;2022-11-06T15:22:19;13.10;52.60
76168;DHT22;64927;48.214;16.378;2022-11-06T15:27:44;13.00;52.10
76168;DHT22;64927;48.214;16.378;2022-11-06T15:30:18;13.10;52.30
76168;DHT22;64927;48.214;16.378;2022-11-06T15:32:45;13.10;52.20
76168;DHT22;64927;48.214;16.378;2022-11-06T15:35:22;13.10;52.40
76168;DHT22;64927;48.214;16.378;2022-11-06T15:37:56;13.10;52.40
76168;DHT22;64927;48.214;16.378;2022-11-06T15:40:32;13.10;52.50
76168;DHT22;64927;48.214;16.378;2022-11-06T15:48:32;12.90;52.80
76168;DHT22;64927;48.214;16.378;2022-11-06T15:51:00;12.90;52.70
76168;DHT22;64927;48.214;16.378;2022-11-06T15:53:29;12.80;52.80
76168;DHT22;64927;48.214;16.378;2022-11-06T15:56:03;12.80;53.20
76168;DHT22;64927;48.214;16.378;2022-11-06T15:58:35;12.70;53.30
76168;DHT22;64927;48.214;16.378;2022-11-06T16:01:03;12.60;52.80
76168;DHT22;64927;48.214;16.378;2022-11-06T16:03:31;12.70;52.40
76168;DHT22;64927;48.214;16.378;2022-11-06T16:06:07;12.60;52.00
76168;DHT22;64927;48.214;16.378;2022-11-06T16:08:35;12.70;51.90
76168;DHT22;64927;48.214;16.378;2022-11-06T16:11:02;12.70;51.80
76168;DHT22;64927;48.214;16.378;2022-11-06T16:13:29;12.70;51.90
76168;DHT22;64927;48.214;16.378;2022-11-06T16:15:59;12.70;51.60
76168;DHT22;64927;48.214;16.378;2022-11-06T16:18:39;12.70;51.70
76168;DHT22;64927;48.214;16.378;2022-11-06T16:21:24;12.70;51.80
76168;DHT22;64927;48.214;16.378;2022-11-06T16:23:56;12.60;51.70
76168;DHT22;64927;48.214;16.378;2022-11-06T16:29:01;12.60;52.00
76168;DHT22;64927;48.214;16.378;2022-11-06T16:31:29;12.60;52.10
76168;DHT22;64927;48.214;16.378;2022-11-06T16:34:01;12.60;52.40
76168;DHT22;64927;48.214;16.378;2022-11-06T16:36:47;12.60;52.50
76168;DHT22;64927;48.214;16.378;2022-11-06T16:41:58;12.50;52.90
76168;DHT22;64927;48.214;16.378;2022-11-06T16:44:42;12.50;53.00
76168;DHT22;64927;48.214;16.378;2022-11-06T16:47:11;12.40;53.50
76168;DHT22;64927;48.214;16.378;2022-11-06T16:49:49;12.40;53.50
76168;DHT22;64927;48.214;16.378;2022-11-06T16:57:43;12.30;54.50
76168;DHT22;64927;48.214;16.378;2022-11-06T17:02:53;12.20;54.40
76168;DHT22;64927;48.214;16.378;2022-11-06T17:05:28;12.20;54.60
76168;DHT22;64927;48.214;16.378;2022-11-06T17:08:12;12.20;54.80
76168;DHT22;64927;48.214;16.378;2022-11-06T17:13:37;12.00;55.20
76168;DHT22;64927;48.214;16.378;2022-11-06T17:16:13;12.00;55.70
76168;DHT22;64927;48.214;16.378;2022-11-06T17:18:39;11.90;55.80
76168;DHT22;64927;48.214;16.378;2022-11-06T17:21:11;11.90;56.10
76168;DHT22;64927;48.214;16.378;2022-11-06T17:23:38;11.90;56.20
76168;DHT22;64927;48.214;16.378;2022-11-06T17:26:29;11.80;56.40
76168;DHT22;64927;48.214;16.378;2022-11-06T17:28:59;11.70;56.90
76168;DHT22;64927;48.214;16.378;2022-11-06T17:31:28;11.60;57.00
76168;DHT22;64927;48.214;16.378;2022-11-06T17:33:55;11.60;57.20
76168;DHT22;64927;48.214;16.378;2022-11-06T17:36:24;11.50;57.30
76168;DHT22;64927;48.214;16.378;2022-11-06T17:38:54;11.60;57.30
76168;DHT22;64927;48.214;16.378;2022-11-06T17:41:21;11.60;57.50
76168;DHT22;64927;48.214;16.378;2022-11-06T17:44:02;11.50;57.40
76168;DHT22;64927;48.214;16.378;2022-11-06T17:46:33;11.50;57.70
76168;DHT22;64927;48.214;16.378;2022-11-06T17:49:03;11.40;57.80
76168;DHT22;64927;48.214;16.378;2022-11-06T17:51:30;11.40;58.30
76168;DHT22;64927;48.214;16.378;2022-11-06T17:54:15;11.40;58.10
76168;DHT22;64927;48.214;16.378;2022-11-06T17:56:42;11.30;58.10
76168;DHT22;64927;48.214;16.378;2022-11-06T17:59:10;11.20;58.60
76168;DHT22;64927;48.214;16.378;2022-11-06T18:01:36;11.30;58.30
76168;DHT22;64927;48.214;16.378;2022-11-06T18:04:03;11.30;58.30
76168;DHT22;64927;48.214;16.378;2022-11-06T18:06:29;11.30;58.50
76168;DHT22;64927;48.214;16.378;2022-11-06T18:08:59;11.30;58.70
76168;DHT22;64927;48.214;16.378;2022-11-06T18:11:26;11.30;58.60
76168;DHT22;64927;48.214;16.378;2022-11-06T18:13:54;11.20;58.70
76168;DHT22;64927;48.214;16.378;2022-11-06T18:16:26;11.30;58.60
76168;DHT22;64927;48.214;16.378;2022-11-06T18:18:56;11.20;58.70
76168;DHT22;64927;48.214;16.378;2022-11-06T18:21:25;11.20;58.80
76168;DHT22;64927;48.214;16.378;2022-11-06T18:23:51;11.20;58.60
76168;DHT22;64927;48.214;16.378;2022-11-06T18:26:20;11.30;58.70
76168;DHT22;64927;48.214;16.378;2022-11-06T18:28:47;11.20;59.10
76168;DHT22;64927;48.214;16.378;2022-11-06T18:31:13;11.20;59.10
76168;DHT22;64927;48.214;16.378;2022-11-06T18:33:39;11.20;59.00
76168;DHT22;64927;48.214;16.378;2022-11-06T18:36:07;11.30;58.80
76168;DHT22;64927;48.214;16.378;2022-11-06T18:38:33;11.50;58.30
76168;DHT22;64927;48.214;16.378;2022-11-06T18:41:13;11.50;58.00
76168;DHT22;64927;48.214;16.378;2022-11-06T18:43:40;11.50;58.10
76168;DHT22;64927;48.214;16.378;2022-11-06T18:46:09;11.50;58.30
76168;DHT22;64927;48.214;16.378;2022-11-06T18:48:36;11.60;58.30
76168;DHT22;64927;48.214;16.378;2022-11-06T18:51:12;11.50;58.30